Meteo18 Weather Cam more information Meteo18 Weather Cam


Thunder radar more information blitzortung!


Rain radar more information rain snow radar



Nearby METAR Reports

   
EBAW - Antwerp
Updated: 23-09-2018 23:50
Clear  
Clear  
   Wind: NW 3.7 km/h
Wind: NW 3.7 km/h
Temperature: 10°C
Dew Point: 8°C
Humidity: 88%
Barometer: 1025 hPa
Visibility: More than 10 km
Cloud details: Clear
EBAW 232150Z AUTO 32002KT CAVOK 10/08 Q1025
EBLG - Li├Ęge
Updated: 23-09-2018 23:50
Mostly Cloudy  
Mostly Cloudy  
   Wind: WNW 11.1 km/h
Wind: WNW 11.1 km/h
Temperature: 9°C
Wind Chill: 7°C
Dew Point: 8°C
Humidity: 94%
Barometer: 1025 hPa
Clouds: Mostly Cloudy
Visibility: 9 km
Cloud details: Few Clouds 3000 ft,
Mostly Cloudy 4500 ft
EBLG 232150Z 30006KT 9000 FEW030 BKN045 09/08 Q1025 TEMPO 4000 SHRA
EBCV - Mons/Bergen
Updated: 20-09-2018 16:25
NOT Current
Few Clouds  
Few Clouds  
   Wind: South 25.9 km/h
Wind: South 25.9 km/h
Temperature: 24°C
Dew Point: 13°C
Humidity: 50%
Barometer: 1014 hPa
Clouds: Few Clouds
Visibility: More than 10 km
Cloud details: Few Clouds 21000 ft
EBCV 201425Z AUTO 19014KT 9999 FEW210/// 24/13 Q1014 BLU
EHBK - Maastricht
Updated: 23-09-2018 23:55
Mostly Cloudy  
Mostly Cloudy  
   Wind: West 9.3 km/h
Wind: West 9.3 km/h
Temperature: 9°C
Wind Chill: 8°C
Dew Point: 8°C
Humidity: 94%
Barometer: 1024 hPa
Clouds: Mostly Cloudy
Visibility: More than 10 km
Cloud details: Few Clouds 400 ft,
Partly Cloudy 500 ft,
Mostly Cloudy 700 ft
EHBK 232155Z AUTO 27005KT 230V310 9999 FEW004 SCT005 BKN007 09/08 Q1024
ELLX - Luxemburg
Updated: 23-09-2018 23:50
Partly Cloudy  
Partly Cloudy  
   Wind: NNW 13 km/h
Wind: NNW 13 km/h
Temperature: 7°C
Wind Chill: 4°C
Dew Point: 6°C
Humidity: 93%
Barometer: 1024 hPa
Clouds: Partly Cloudy
Visibility: More than 10 km
Cloud details: Partly Cloudy 2500 ft
ELLX 232150Z 34007KT 9999 SCT025 07/06 Q1024 NOSIG
EBOS - Oostende
Updated: 23-09-2018 23:50
Partly Cloudy  
Partly Cloudy  
   Wind: North 24.1 km/h
Wind: North 24.1 km/h
Temperature: 12°C
Dew Point: 6°C
Humidity: 67%
Barometer: 1027 hPa
Clouds: Partly Cloudy
Visibility: More than 10 km
Cloud details: Few Clouds 2500 ft,
Partly Cloudy 4900 ft
EBOS 232150Z 35013KT 9999 FEW025 SCT049 12/06 Q1027 RESHRA TEMPO 35022G32KT 4000 SHRA

Script developed by  Saratoga-weather.org Adapted for the template by  Weerstation Leuven

You find our weather info also at:

Weather Underground

Equipment we use:

Weather-station
Davis Vue

Weather-program
Meteobridge

Weather-server
Raspberry PI 2 B+

Provider
1 and 1

Davis Vue

Meteobridge

Raspberry PI 2 B+

1 and 1